createdAt,value
2022-09-22T00:01:00.708Z,59.37
2022-09-22T00:03:31.215Z,59.13
2022-09-22T00:06:01.993Z,59.67
2022-09-22T00:08:30.961Z,59.09
2022-09-22T00:11:06.536Z,59.22
2022-09-22T00:13:34.577Z,59.02
2022-09-22T00:16:02.271Z,59.13
2022-09-22T00:18:29.835Z,58.61
2022-09-22T00:20:56.709Z,58.74
2022-09-22T00:23:29.212Z,58.72
2022-09-22T00:25:55.899Z,58.86
2022-09-22T00:28:22.759Z,59.03
2022-09-22T00:30:49.394Z,59.11
2022-09-22T00:33:16.125Z,59.15
2022-09-22T00:35:42.759Z,58.78
2022-09-22T00:38:09.761Z,58.53
2022-09-22T00:40:38.117Z,57.99
2022-09-22T00:43:16.781Z,58.24
2022-09-22T00:45:44.020Z,57.77
2022-09-22T00:48:11.079Z,57.76
2022-09-22T00:50:38.498Z,57.66
2022-09-22T00:53:09.426Z,57.73
2022-09-22T00:55:42.881Z,58.08
2022-09-22T00:58:15.366Z,58.19
2022-09-22T01:00:42.640Z,58.04
2022-09-22T01:03:14.391Z,57.99
2022-09-22T01:05:43.958Z,58.68
2022-09-22T01:08:11.181Z,58.21
2022-09-22T01:10:39.522Z,58.61
2022-09-22T01:13:20.165Z,58.20
2022-09-22T01:15:58.925Z,57.72
2022-09-22T01:18:34.273Z,58.04
2022-09-22T01:21:23.070Z,58.04
2022-09-22T01:24:31.277Z,58.21
2022-09-22T01:27:39.744Z,59.22
2022-09-22T01:30:25.095Z,59.93
2022-09-22T01:33:18.276Z,60.10
2022-09-22T01:35:57.675Z,60.23
2022-09-22T01:38:33.246Z,59.67
2022-09-22T01:41:04.138Z,59.81
2022-09-22T01:43:38.915Z,59.65
2022-09-22T01:46:12.000Z,59.76
2022-09-22T01:48:43.219Z,59.72
2022-09-22T01:51:14.742Z,60.08
2022-09-22T01:53:47.642Z,60.02
2022-09-22T01:56:18.714Z,60.23
2022-09-22T01:58:48.541Z,59.75
2022-09-22T02:01:20.234Z,59.20
2022-09-22T02:03:50.292Z,58.96
2022-09-22T02:06:21.574Z,59.11
2022-09-22T02:08:56.640Z,58.77
2022-09-22T02:11:23.955Z,59.52
2022-09-22T02:13:51.118Z,59.02
2022-09-22T02:16:21.764Z,58.94
2022-09-22T02:18:51.820Z,59.19
2022-09-22T02:21:19.533Z,59.21
2022-09-22T02:23:48.176Z,58.73
2022-09-22T02:26:23.735Z,58.92
2022-09-22T02:28:53.307Z,58.81
2022-09-22T02:31:23.231Z,58.89
2022-09-22T02:33:51.822Z,59.57
2022-09-22T02:36:30.511Z,59.48
2022-09-22T02:39:03.520Z,59.81
2022-09-22T02:41:40.805Z,59.16
2022-09-22T02:44:14.139Z,58.94
2022-09-22T02:46:46.147Z,59.19
2022-09-22T02:49:17.050Z,59.62
2022-09-22T02:51:46.514Z,59.86
2022-09-22T02:54:14.996Z,59.93
2022-09-22T02:56:41.980Z,59.65
2022-09-22T02:59:11.535Z,59.16
2022-09-22T03:01:38.906Z,59.09
2022-09-22T03:04:07.171Z,59.13
2022-09-22T03:06:34.447Z,59.19
2022-09-22T03:09:01.103Z,58.78
2022-09-22T03:11:27.737Z,59.03
2022-09-22T03:13:54.529Z,59.27
2022-09-22T03:16:21.375Z,59.40
2022-09-22T03:18:48.226Z,59.44
2022-09-22T03:21:16.486Z,59.64
2022-09-22T03:23:43.241Z,59.63
2022-09-22T03:26:09.903Z,59.95
2022-09-22T03:28:36.504Z,59.99
2022-09-22T03:31:03.246Z,59.50
2022-09-22T03:33:29.918Z,58.80
2022-09-22T03:35:56.720Z,59.02
2022-09-22T03:38:24.805Z,59.30
2022-09-22T03:40:52.600Z,59.72
2022-09-22T03:43:19.291Z,60.51
2022-09-22T03:45:46.269Z,60.41
2022-09-22T03:48:13.711Z,60.50
2022-09-22T03:50:40.329Z,59.55
2022-09-22T03:53:06.962Z,60.03
2022-09-22T03:55:35.064Z,60.47
2022-09-22T03:58:01.731Z,60.71
2022-09-22T04:00:28.701Z,60.50
2022-09-22T04:02:56.798Z,59.85
2022-09-22T04:05:23.431Z,59.77
2022-09-22T04:07:50.129Z,59.95
2022-09-22T04:10:17.016Z,60.10
2022-09-22T04:12:45.076Z,60.42
2022-09-22T04:15:11.719Z,60.59
2022-09-22T04:17:38.746Z,60.48
2022-09-22T04:20:07.744Z,60.18
2022-09-22T04:22:34.746Z,60.17
2022-09-22T04:25:01.436Z,59.96
2022-09-22T04:27:28.129Z,60.16
2022-09-22T04:29:56.203Z,60.51
2022-09-22T04:32:22.878Z,60.68
2022-09-22T04:34:49.499Z,60.30
2022-09-22T04:37:16.059Z,60.56
2022-09-22T04:39:42.820Z,60.00
2022-09-22T04:42:09.474Z,60.01
2022-09-22T04:44:36.250Z,59.85
2022-09-22T04:47:05.158Z,59.57
2022-09-22T04:49:32.109Z,59.63
2022-09-22T04:51:59.189Z,59.27
2022-09-22T04:54:25.864Z,59.09
2022-09-22T04:56:52.485Z,59.51
2022-09-22T04:59:19.247Z,59.93
2022-09-22T05:01:46.026Z,59.61
2022-09-22T05:04:14.530Z,60.50
2022-09-22T05:06:42.116Z,60.41
2022-09-22T05:09:08.798Z,60.03
2022-09-22T05:11:35.607Z,59.83
2022-09-22T05:14:02.804Z,60.20
2022-09-22T05:16:31.276Z,60.42
2022-09-22T05:18:58.447Z,60.41
2022-09-22T05:21:26.427Z,60.37
2022-09-22T05:23:54.205Z,60.03
2022-09-22T05:26:20.967Z,60.42
2022-09-22T05:28:47.622Z,59.93
2022-09-22T05:31:14.602Z,59.82
2022-09-22T05:33:41.541Z,59.76
2022-09-22T05:36:08.670Z,59.83
2022-09-22T05:38:36.657Z,59.58
2022-09-22T05:41:03.739Z,59.47
2022-09-22T05:43:30.783Z,59.77
2022-09-22T05:45:57.708Z,59.91
2022-09-22T05:48:28.894Z,59.62
2022-09-22T05:50:57.810Z,59.29
2022-09-22T05:53:24.741Z,58.96
2022-09-22T05:55:53.167Z,58.79
2022-09-22T05:58:20.726Z,59.37
2022-09-22T06:00:47.554Z,59.89
2022-09-22T06:03:14.294Z,59.73
2022-09-22T06:05:40.987Z,59.36
2022-09-22T06:08:07.795Z,59.98
2022-09-22T06:10:36.230Z,60.37
2022-09-22T06:13:05.600Z,60.01
2022-09-22T06:15:35.710Z,60.35
2022-09-22T06:18:05.779Z,60.15
2022-09-22T06:20:32.722Z,60.01
2022-09-22T06:22:59.942Z,59.98
2022-09-22T06:25:29.918Z,59.94
2022-09-22T06:28:00.530Z,59.37
2022-09-22T06:30:28.759Z,59.38
2022-09-22T06:32:56.131Z,59.38
2022-09-22T06:35:22.830Z,59.44
2022-09-22T06:37:56.658Z,59.54
2022-09-22T06:40:23.751Z,59.56
2022-09-22T06:42:50.477Z,59.50
2022-09-22T06:45:17.736Z,59.33
2022-09-22T06:47:45.987Z,59.49
2022-09-22T06:50:12.683Z,59.46
2022-09-22T06:52:39.441Z,59.42
2022-09-22T06:55:07.637Z,59.30
2022-09-22T06:57:34.378Z,59.47
2022-09-22T07:00:01.833Z,59.10
2022-09-22T07:02:29.574Z,58.99
2022-09-22T07:05:00.416Z,59.43
2022-09-22T07:07:28.010Z,59.38
2022-09-22T07:09:55.400Z,59.30
2022-09-22T07:12:22.962Z,59.14
2022-09-22T07:14:49.846Z,58.72
2022-09-22T07:17:16.537Z,58.51
2022-09-22T07:19:43.482Z,58.65
2022-09-22T07:22:12.869Z,58.43
2022-09-22T07:24:39.695Z,58.00
2022-09-22T07:27:07.080Z,57.72
2022-09-22T07:29:33.718Z,57.91
2022-09-22T07:32:02.556Z,58.88
2022-09-22T07:34:29.495Z,58.10
2022-09-22T07:36:56.359Z,57.74
2022-09-22T07:39:25.100Z,57.16
2022-09-22T07:41:51.817Z,56.72
2022-09-22T07:44:40.898Z,55.18
2022-09-22T07:47:10.293Z,55.43
2022-09-22T07:49:37.250Z,55.49
2022-09-22T07:52:04.333Z,55.30
2022-09-22T07:54:34.717Z,54.84
2022-09-22T07:57:05.416Z,54.37
2022-09-22T07:59:36.475Z,54.22
2022-09-22T08:02:03.160Z,53.50
2022-09-22T08:04:32.016Z,53.63
2022-09-22T08:06:58.710Z,54.49
2022-09-22T08:09:25.971Z,53.58
2022-09-22T08:11:54.692Z,52.66
2022-09-22T08:14:23.153Z,52.36
2022-09-22T08:16:53.997Z,51.09
2022-09-22T08:19:23.199Z,51.48
2022-09-22T08:21:51.589Z,51.77
2022-09-22T08:24:23.455Z,51.38
2022-09-22T08:26:52.445Z,50.91
2022-09-22T08:29:21.203Z,50.75
2022-09-22T08:31:49.444Z,50.40
2022-09-22T08:34:17.691Z,50.32
2022-09-22T08:36:50.801Z,49.30
2022-09-22T08:39:18.801Z,49.98
2022-09-22T08:41:57.929Z,49.38
2022-09-22T08:44:33.317Z,49.65
2022-09-22T08:47:01.895Z,49.69
2022-09-22T08:49:54.556Z,48.82
2022-09-22T08:52:27.987Z,49.28
2022-09-22T08:54:59.409Z,48.89
2022-09-22T08:57:49.146Z,48.50
2022-09-22T09:00:20.734Z,48.87
2022-09-22T09:02:55.654Z,48.38
2022-09-22T09:06:00.406Z,47.14
2022-09-22T09:09:05.349Z,46.63
2022-09-22T09:12:03.505Z,47.38
2022-09-22T09:15:02.850Z,47.54
2022-09-22T09:17:35.950Z,46.74
2022-09-22T09:20:16.976Z,47.12
2022-09-22T09:22:48.985Z,47.62
2022-09-22T09:25:23.056Z,46.76
2022-09-22T09:27:54.772Z,46.18
2022-09-22T09:30:22.365Z,46.92
2022-09-22T09:32:52.918Z,46.52
2022-09-22T09:35:24.766Z,46.02
2022-09-22T09:37:53.872Z,46.28
2022-09-22T09:40:22.034Z,45.29
2022-09-22T09:42:56.668Z,44.54
2022-09-22T09:45:31.923Z,45.65
2022-09-22T09:48:20.371Z,45.16
2022-09-22T09:50:47.315Z,42.54
2022-09-22T09:53:29.440Z,43.21
2022-09-22T09:55:56.961Z,43.54
2022-09-22T09:58:42.390Z,44.96
2022-09-22T10:01:13.304Z,44.90
2022-09-22T10:03:47.620Z,44.26
2022-09-22T10:06:24.141Z,43.17
2022-09-22T10:08:51.914Z,42.39
2022-09-22T10:11:29.273Z,42.60
2022-09-22T10:13:57.516Z,41.89
2022-09-22T10:16:25.769Z,41.99
2022-09-22T10:19:04.626Z,41.32
2022-09-22T10:21:31.547Z,41.52
2022-09-22T10:24:00.229Z,41.59
2022-09-22T10:26:28.626Z,39.95
2022-09-22T10:29:15.470Z,40.38
2022-09-22T10:32:02.732Z,40.56
2022-09-22T10:34:33.880Z,40.35
2022-09-22T10:37:02.203Z,39.71
2022-09-22T10:39:38.277Z,39.38
2022-09-22T10:42:12.441Z,39.82
2022-09-22T10:44:43.934Z,39.85
2022-09-22T10:47:51.763Z,40.56
2022-09-22T10:50:50.735Z,40.02
2022-09-22T10:53:43.700Z,39.95
2022-09-22T10:56:19.362Z,40.13
2022-09-22T10:59:03.073Z,39.92
2022-09-22T11:01:46.128Z,40.25
2022-09-22T11:04:37.222Z,40.14
2022-09-22T11:07:41.935Z,38.89
2022-09-22T11:10:40.839Z,39.14
2022-09-22T11:13:23.468Z,38.83
2022-09-22T11:16:08.235Z,38.71
2022-09-22T11:18:52.366Z,39.05
2022-09-22T11:21:32.719Z,39.09
2022-09-22T11:24:19.147Z,38.01
2022-09-22T11:26:48.609Z,37.75
2022-09-22T11:29:55.897Z,37.39
2022-09-22T11:32:55.308Z,38.16
2022-09-22T11:35:40.675Z,38.43
2022-09-22T11:38:21.143Z,38.02
2022-09-22T11:41:02.999Z,37.46
2022-09-22T11:43:47.815Z,36.58
2022-09-22T11:46:22.742Z,36.96
2022-09-22T11:49:09.622Z,36.69
2022-09-22T11:51:50.348Z,36.69
2022-09-22T11:54:37.097Z,36.31
2022-09-22T11:57:12.612Z,35.18
2022-09-22T11:59:42.286Z,35.25
2022-09-22T12:02:17.733Z,35.65
2022-09-22T12:04:49.664Z,34.75
2022-09-22T12:07:24.594Z,34.92
2022-09-22T12:09:56.172Z,34.34
2022-09-22T12:12:25.915Z,34.77
2022-09-22T12:14:59.462Z,35.36
2022-09-22T12:17:35.185Z,36.05
2022-09-22T12:20:12.758Z,35.99
2022-09-22T12:23:14.958Z,35.03
2022-09-22T12:25:51.955Z,35.45
2022-09-22T12:28:24.135Z,35.64
2022-09-22T12:31:04.980Z,35.42
2022-09-22T12:33:34.082Z,35.53
2022-09-22T12:36:01.412Z,35.70
2022-09-22T12:38:30.757Z,36.02
2022-09-22T12:41:02.534Z,33.97
2022-09-22T12:43:32.920Z,33.43
2022-09-22T12:46:04.697Z,34.28
2022-09-22T12:48:33.940Z,34.29
2022-09-22T12:51:32.002Z,33.85
2022-09-22T12:54:27.851Z,33.45
2022-09-22T12:56:57.521Z,32.07
2022-09-22T12:59:57.054Z,32.78
2022-09-22T13:02:29.731Z,32.56
2022-09-22T13:05:30.006Z,34.05
2022-09-22T13:07:56.671Z,33.95
2022-09-22T13:10:50.969Z,34.19
2022-09-22T13:13:42.746Z,35.05
2022-09-22T13:16:34.937Z,35.09
2022-09-22T13:19:03.105Z,35.42
2022-09-22T13:21:31.799Z,35.31
2022-09-22T13:24:00.473Z,35.21
2022-09-22T13:26:30.045Z,35.45
2022-09-22T13:29:02.021Z,33.75
2022-09-22T13:31:38.897Z,32.61
2022-09-22T13:34:25.358Z,34.17
2022-09-22T13:36:54.748Z,33.96
2022-09-22T13:39:24.215Z,33.85
2022-09-22T13:41:54.685Z,32.47
2022-09-22T13:44:27.038Z,32.83
2022-09-22T13:46:58.061Z,33.00
2022-09-22T13:49:33.657Z,32.82
2022-09-22T13:52:05.820Z,34.81
2022-09-22T13:54:36.268Z,36.02
2022-09-22T13:57:06.743Z,36.38
2022-09-22T13:59:41.106Z,36.09
2022-09-22T14:02:12.330Z,36.46
2022-09-22T14:04:49.282Z,35.09
2022-09-22T14:07:16.595Z,35.33
2022-09-22T14:09:44.485Z,36.41
2022-09-22T14:12:11.571Z,37.33
2022-09-22T14:14:40.178Z,36.81
2022-09-22T14:17:13.510Z,35.64
2022-09-22T14:19:44.918Z,35.95
2022-09-22T14:22:17.812Z,35.30
2022-09-22T14:24:48.740Z,36.56
2022-09-22T14:27:21.231Z,37.16
2022-09-22T14:29:50.904Z,38.14
2022-09-22T14:32:25.438Z,37.58
2022-09-22T14:34:56.824Z,35.65
2022-09-22T14:37:28.766Z,35.93
2022-09-22T14:39:57.558Z,35.91
2022-09-22T14:42:28.626Z,36.68
2022-09-22T14:45:20.915Z,37.14
2022-09-22T14:48:13.602Z,36.15
2022-09-22T14:50:45.357Z,36.12
2022-09-22T14:53:18.479Z,35.46
2022-09-22T14:55:48.393Z,36.49
2022-09-22T14:58:18.458Z,36.87
2022-09-22T15:01:13.344Z,36.95
2022-09-22T15:03:43.856Z,37.63
2022-09-22T15:06:14.164Z,36.91
2022-09-22T15:08:44.546Z,36.87
2022-09-22T15:11:11.680Z,37.05
2022-09-22T15:13:40.549Z,36.11
2022-09-22T15:16:27.343Z,37.36
2022-09-22T15:18:55.457Z,38.87
2022-09-22T15:21:29.662Z,39.36
2022-09-22T15:23:59.260Z,38.02
2022-09-22T15:26:27.981Z,36.24
2022-09-22T15:28:59.061Z,37.06
2022-09-22T15:31:29.577Z,38.37
2022-09-22T15:34:01.634Z,39.06
2022-09-22T15:36:33.335Z,39.08
2022-09-22T15:39:06.753Z,39.47
2022-09-22T15:41:34.730Z,38.36
2022-09-22T15:44:02.050Z,38.05
2022-09-22T15:46:33.950Z,37.66
2022-09-22T15:49:06.261Z,38.72
2022-09-22T15:51:33.367Z,37.69
2022-09-22T15:54:00.188Z,37.40
2022-09-22T15:56:29.713Z,37.78
2022-09-22T15:58:59.336Z,38.29
2022-09-22T16:01:29.383Z,37.89
2022-09-22T16:03:59.975Z,38.15
2022-09-22T16:06:29.116Z,37.47
2022-09-22T16:08:56.427Z,37.38
2022-09-22T16:11:30.710Z,37.62
2022-09-22T16:13:58.892Z,38.46
2022-09-22T16:16:29.512Z,38.54
2022-09-22T16:18:56.746Z,39.25
2022-09-22T16:21:29.371Z,39.61
2022-09-22T16:24:03.017Z,39.38
2022-09-22T16:26:31.886Z,39.01
2022-09-22T16:28:59.283Z,39.21
2022-09-22T16:31:27.163Z,39.51
2022-09-22T16:33:55.207Z,39.77
2022-09-22T16:36:22.701Z,40.08
2022-09-22T16:38:50.170Z,40.30
2022-09-22T16:41:20.555Z,40.85
2022-09-22T16:43:47.666Z,40.94
2022-09-22T16:46:28.536Z,40.72
2022-09-22T16:48:57.311Z,40.58
2022-09-22T16:51:24.767Z,40.53
2022-09-22T16:53:52.589Z,40.43
2022-09-22T16:56:23.094Z,40.72
2022-09-22T16:58:50.453Z,41.20
2022-09-22T17:01:19.790Z,41.51
2022-09-22T17:03:49.494Z,41.43
2022-09-22T17:06:18.539Z,41.42
2022-09-22T17:08:45.964Z,41.88
2022-09-22T17:11:14.473Z,41.91
2022-09-22T17:13:46.336Z,42.08
2022-09-22T17:16:21.829Z,42.24
2022-09-22T17:18:50.612Z,42.45
2022-09-22T17:21:22.118Z,42.99
2022-09-22T17:23:51.672Z,43.03
2022-09-22T17:26:19.997Z,43.36
2022-09-22T17:28:51.004Z,43.33
2022-09-22T17:31:17.789Z,43.66
2022-09-22T17:33:52.099Z,43.79
2022-09-22T17:36:21.268Z,43.49
2022-09-22T17:38:50.746Z,43.94
2022-09-22T17:41:19.768Z,44.45
2022-09-22T17:43:53.071Z,44.42
2022-09-22T17:46:20.513Z,44.78
2022-09-22T17:49:06.659Z,44.87
2022-09-22T17:51:57.989Z,45.01
2022-09-22T17:54:44.691Z,44.96
2022-09-22T17:57:13.002Z,45.27
2022-09-22T17:59:42.270Z,45.33
2022-09-22T18:02:11.263Z,45.92
2022-09-22T18:04:38.674Z,45.96
2022-09-22T18:07:07.066Z,46.29
2022-09-22T18:09:34.502Z,46.70
2022-09-22T18:12:01.720Z,47.44
2022-09-22T18:14:30.941Z,46.92
2022-09-22T18:17:00.945Z,47.78
2022-09-22T18:19:29.196Z,47.92
2022-09-22T18:21:55.927Z,48.01
2022-09-22T18:24:22.893Z,47.88
2022-09-22T18:26:50.618Z,47.61
2022-09-22T18:29:18.084Z,47.63
2022-09-22T18:31:45.442Z,47.95
2022-09-22T18:34:14.205Z,48.62
2022-09-22T18:36:41.012Z,49.10
2022-09-22T18:39:09.359Z,49.46
2022-09-22T18:41:37.422Z,49.95
2022-09-22T18:44:04.591Z,49.59
2022-09-22T18:46:34.448Z,49.60
2022-09-22T18:49:09.421Z,49.58
2022-09-22T18:51:39.659Z,50.20
2022-09-22T18:54:08.186Z,49.98
2022-09-22T18:56:37.001Z,49.76
2022-09-22T18:59:05.526Z,49.94
2022-09-22T19:01:34.522Z,49.97
2022-09-22T19:04:01.770Z,50.25
2022-09-22T19:06:30.159Z,49.79
2022-09-22T19:08:59.352Z,50.45
2022-09-22T19:11:26.418Z,50.68
2022-09-22T19:13:53.852Z,51.04
2022-09-22T19:16:22.383Z,51.12
2022-09-22T19:18:49.912Z,51.31
2022-09-22T19:21:16.622Z,51.69
2022-09-22T19:23:43.947Z,51.85
2022-09-22T19:26:13.126Z,51.58
2022-09-22T19:28:40.542Z,51.86
2022-09-22T19:31:08.725Z,51.49
2022-09-22T19:33:35.557Z,50.75
2022-09-22T19:36:02.452Z,50.69
2022-09-22T19:38:29.961Z,50.69
2022-09-22T19:40:59.492Z,50.49
2022-09-22T19:43:29.823Z,50.33
2022-09-22T19:45:56.772Z,50.37
2022-09-22T19:48:23.709Z,50.78
2022-09-22T19:50:50.380Z,50.93
2022-09-22T19:53:17.062Z,51.09
2022-09-22T19:55:43.933Z,51.29
2022-09-22T19:58:10.590Z,51.73
2022-09-22T20:00:38.647Z,51.92
2022-09-22T20:03:06.184Z,52.06
2022-09-22T20:05:37.002Z,52.13
2022-09-22T20:08:05.075Z,51.81
2022-09-22T20:10:32.177Z,51.35
2022-09-22T20:12:59.641Z,51.14
2022-09-22T20:15:27.458Z,51.45
2022-09-22T20:17:56.455Z,51.67
2022-09-22T20:20:25.460Z,51.49
2022-09-22T20:22:56.986Z,52.36
2022-09-22T20:25:25.595Z,52.55
2022-09-22T20:27:52.775Z,52.73
2022-09-22T20:30:19.518Z,52.38
2022-09-22T20:32:46.648Z,52.08
2022-09-22T20:35:16.840Z,52.92
2022-09-22T20:37:44.036Z,53.23
2022-09-22T20:40:14.157Z,53.16
2022-09-22T20:42:41.683Z,53.14
2022-09-22T20:45:11.146Z,52.78
2022-09-22T20:47:37.999Z,53.13
2022-09-22T20:50:07.149Z,53.48
2022-09-22T20:52:35.552Z,54.13
2022-09-22T20:55:02.660Z,54.70
2022-09-22T20:57:31.060Z,53.58
2022-09-22T20:59:57.965Z,53.74
2022-09-22T21:02:25.185Z,53.21
2022-09-22T21:04:52.312Z,53.20
2022-09-22T21:07:19.296Z,53.15
2022-09-22T21:10:05.884Z,53.74
2022-09-22T21:12:33.708Z,53.77
2022-09-22T21:15:00.673Z,54.03
2022-09-22T21:17:28.029Z,53.32
2022-09-22T21:19:57.340Z,53.11
2022-09-22T21:22:24.533Z,53.67
2022-09-22T21:24:52.744Z,54.52
2022-09-22T21:27:20.194Z,54.60
2022-09-22T21:29:47.544Z,54.29
2022-09-22T21:32:14.263Z,54.07
2022-09-22T21:34:42.905Z,54.20
2022-09-22T21:37:10.102Z,54.68
2022-09-22T21:39:36.849Z,54.35
2022-09-22T21:42:05.155Z,54.36
2022-09-22T21:44:31.904Z,54.83
2022-09-22T21:46:59.351Z,55.00
2022-09-22T21:49:26.058Z,54.92
2022-09-22T21:51:52.714Z,55.28
2022-09-22T21:54:20.061Z,54.46
2022-09-22T21:56:49.270Z,55.49
2022-09-22T21:59:17.730Z,55.83
2022-09-22T22:01:45.167Z,55.15
2022-09-22T22:04:15.382Z,54.90
2022-09-22T22:06:43.380Z,55.18
2022-09-22T22:09:14.587Z,55.26
2022-09-22T22:11:43.434Z,55.52
2022-09-22T22:14:11.980Z,55.11
2022-09-22T22:16:41.985Z,55.60
2022-09-22T22:19:11.839Z,55.56
2022-09-22T22:21:41.085Z,55.68
2022-09-22T22:24:28.753Z,55.83
2022-09-22T22:26:57.523Z,55.86
2022-09-22T22:29:26.889Z,56.01
2022-09-22T22:31:55.132Z,55.52
2022-09-22T22:34:27.645Z,55.31
2022-09-22T22:36:55.986Z,55.78
2022-09-22T22:39:22.745Z,56.15
2022-09-22T22:41:50.081Z,55.56
2022-09-22T22:44:18.073Z,55.20
2022-09-22T22:46:45.689Z,55.39
2022-09-22T22:49:14.001Z,55.95
2022-09-22T22:51:43.399Z,56.46
2022-09-22T22:54:11.299Z,56.65
2022-09-22T22:56:41.798Z,56.24
2022-09-22T22:59:10.246Z,56.11
2022-09-22T23:01:37.700Z,56.18
2022-09-22T23:04:05.861Z,56.57
2022-09-22T23:06:36.310Z,55.92
2022-09-22T23:09:04.421Z,56.18
2022-09-22T23:11:35.342Z,56.52
2022-09-22T23:14:05.565Z,56.33
2022-09-22T23:16:34.546Z,56.21
2022-09-22T23:19:03.325Z,56.62
2022-09-22T23:21:30.327Z,56.44
2022-09-22T23:23:59.775Z,57.01
2022-09-22T23:26:27.867Z,55.96
2022-09-22T23:28:56.115Z,55.66
2022-09-22T23:31:22.795Z,56.00
2022-09-22T23:33:53.128Z,55.82
2022-09-22T23:36:22.596Z,55.37
2022-09-22T23:38:53.107Z,56.09
2022-09-22T23:41:22.270Z,56.78
2022-09-22T23:43:49.594Z,56.52
2022-09-22T23:46:16.502Z,56.29
2022-09-22T23:48:43.321Z,56.13
2022-09-22T23:51:10.409Z,55.64
2022-09-22T23:53:37.871Z,56.09
2022-09-22T23:56:06.268Z,56.63
2022-09-22T23:58:35.206Z,57.29
